createdAt,value
2022-08-03T00:02:16.943Z,100872.80
2022-08-03T00:04:43.993Z,100867.00
2022-08-03T00:07:10.779Z,100868.80
2022-08-03T00:09:37.566Z,100867.60
2022-08-03T00:12:05.044Z,100862.80
2022-08-03T00:14:31.928Z,100862.00
2022-08-03T00:16:58.949Z,100861.60
2022-08-03T00:19:25.728Z,100858.40
2022-08-03T00:21:52.446Z,100858.60
2022-08-03T00:24:19.285Z,100857.60
2022-08-03T00:26:46.298Z,100855.20
2022-08-03T00:29:13.353Z,100854.80
2022-08-03T00:31:52.237Z,100848.40
2022-08-03T00:34:27.374Z,100850.40
2022-08-03T00:37:06.685Z,100845.60
2022-08-03T00:39:33.525Z,100848.20
2022-08-03T00:42:05.355Z,100845.40
2022-08-03T00:44:40.175Z,100842.00
2022-08-03T00:47:08.057Z,100839.20
2022-08-03T00:49:34.964Z,100836.40
2022-08-03T00:52:09.327Z,100841.40
2022-08-03T00:54:38.961Z,100834.40
2022-08-03T00:57:06.956Z,100838.40
2022-08-03T00:59:34.692Z,100831.40
2022-08-03T01:02:01.581Z,100837.00
2022-08-03T01:04:28.405Z,100833.40
2022-08-03T01:07:17.493Z,100830.20
2022-08-03T01:10:31.608Z,100829.80
2022-08-03T01:14:01.314Z,100825.80
2022-08-03T01:16:52.837Z,100828.40
2022-08-03T01:20:03.102Z,100824.80
2022-08-03T01:22:32.681Z,100821.00
2022-08-03T01:25:27.250Z,100820.20
2022-08-03T01:28:34.544Z,100825.60
2022-08-03T01:31:08.594Z,100827.00
2022-08-03T01:33:43.066Z,100827.00
2022-08-03T01:36:18.149Z,100826.20
2022-08-03T01:38:52.833Z,100829.20
2022-08-03T01:41:29.264Z,100827.00
2022-08-03T01:44:28.982Z,100822.60
2022-08-03T01:46:51.388Z,100820.60
2022-08-03T01:49:18.482Z,100818.40
2022-08-03T01:51:57.839Z,100813.00
2022-08-03T01:54:37.807Z,100810.80
2022-08-03T01:57:06.113Z,100813.40
2022-08-03T01:59:37.145Z,100813.40
2022-08-03T02:02:28.813Z,100811.20
2022-08-03T02:04:57.669Z,100807.20
2022-08-03T02:07:27.933Z,100809.80
2022-08-03T02:09:58.767Z,100810.40
2022-08-03T02:12:28.895Z,100813.00
2022-08-03T02:15:00.033Z,100811.40
2022-08-03T02:17:39.724Z,100810.40
2022-08-03T02:20:12.049Z,100811.40
2022-08-03T02:22:44.715Z,100805.40
2022-08-03T02:25:14.979Z,100810.60
2022-08-03T02:27:55.024Z,100814.40
2022-08-03T02:30:29.679Z,100819.00
2022-08-03T02:32:59.540Z,100815.40
2022-08-03T02:35:30.548Z,100810.00
2022-08-03T02:38:03.623Z,100813.80
2022-08-03T02:40:33.206Z,100812.40
2022-08-03T02:43:07.730Z,100809.80
2022-08-03T02:45:45.360Z,100810.60
2022-08-03T02:48:20.440Z,100809.60
2022-08-03T02:50:49.655Z,100809.20
2022-08-03T02:53:19.713Z,100808.80
2022-08-03T02:55:49.402Z,100807.60
2022-08-03T02:58:23.103Z,100807.20
2022-08-03T03:00:52.393Z,100806.00
2022-08-03T03:03:22.168Z,100805.60
2022-08-03T03:05:54.866Z,100801.40
2022-08-03T03:08:28.717Z,100801.00
2022-08-03T03:10:59.754Z,100803.40
2022-08-03T03:13:30.328Z,100803.00
2022-08-03T03:16:04.911Z,100795.60
2022-08-03T03:18:34.785Z,100800.60
2022-08-03T03:21:04.509Z,100800.20
2022-08-03T03:23:36.062Z,100801.60
2022-08-03T03:26:03.369Z,100801.40
2022-08-03T03:28:32.184Z,100805.40
2022-08-03T03:31:00.923Z,100803.00
2022-08-03T03:33:28.724Z,100806.80
2022-08-03T03:35:57.745Z,100804.40
2022-08-03T03:38:24.622Z,100809.20
2022-08-03T03:40:51.813Z,100805.60
2022-08-03T03:43:19.089Z,100808.60
2022-08-03T03:45:47.616Z,100808.20
2022-08-03T03:48:14.919Z,100806.60
2022-08-03T03:50:41.737Z,100806.20
2022-08-03T03:53:15.923Z,100805.00
2022-08-03T03:55:57.847Z,100805.00
2022-08-03T03:58:31.637Z,100801.40
2022-08-03T04:00:59.309Z,100800.00
2022-08-03T04:03:26.254Z,100801.00
2022-08-03T04:06:11.721Z,100800.20
2022-08-03T04:08:57.265Z,100801.40
2022-08-03T04:11:48.999Z,100798.00
2022-08-03T04:14:36.057Z,100801.20
2022-08-03T04:17:09.364Z,100801.40
2022-08-03T04:19:46.403Z,100796.40
2022-08-03T04:22:20.354Z,100802.00
2022-08-03T04:24:57.550Z,100804.80
2022-08-03T04:27:33.456Z,100804.40
2022-08-03T04:30:05.753Z,100808.00
2022-08-03T04:32:33.967Z,100811.00
2022-08-03T04:35:01.051Z,100806.40
2022-08-03T04:37:41.739Z,100805.20
2022-08-03T04:40:18.987Z,100803.80
2022-08-03T04:42:53.767Z,100803.00
2022-08-03T04:45:22.215Z,100804.60
2022-08-03T04:47:50.538Z,100805.00
2022-08-03T04:50:21.318Z,100809.80
2022-08-03T04:53:06.107Z,100814.20
2022-08-03T04:55:36.770Z,100809.40
2022-08-03T04:58:04.666Z,100809.00
2022-08-03T05:00:31.639Z,100812.60
2022-08-03T05:02:58.575Z,100818.40
2022-08-03T05:05:25.390Z,100819.00
2022-08-03T05:07:52.294Z,100815.60
2022-08-03T05:10:20.260Z,100815.80
2022-08-03T05:12:49.197Z,100822.00
2022-08-03T05:15:16.136Z,100816.60
2022-08-03T05:17:43.398Z,100820.80
2022-08-03T05:20:11.695Z,100824.20
2022-08-03T05:22:38.595Z,100820.00
2022-08-03T05:25:05.881Z,100822.40
2022-08-03T05:27:32.654Z,100818.60
2022-08-03T05:30:32.281Z,100814.00
2022-08-03T05:32:46.137Z,100819.40
2022-08-03T05:36:00.766Z,100817.20
2022-08-03T05:37:59.697Z,100815.60
2022-08-03T05:40:27.118Z,100815.20
2022-08-03T05:42:54.093Z,100819.00
2022-08-03T05:45:23.254Z,100815.80
2022-08-03T05:47:53.666Z,100817.60
2022-08-03T05:50:21.532Z,100818.00
2022-08-03T05:52:48.337Z,100819.60
2022-08-03T05:55:15.946Z,100828.80
2022-08-03T05:57:43.767Z,100824.80
2022-08-03T06:00:12.604Z,100825.00
2022-08-03T06:02:42.852Z,100824.00
2022-08-03T06:05:10.924Z,100826.60
2022-08-03T06:07:38.250Z,100827.20
2022-08-03T06:10:35.661Z,100824.80
2022-08-03T06:12:53.614Z,100827.20
2022-08-03T06:15:20.582Z,100822.40
2022-08-03T06:17:52.164Z,100824.00
2022-08-03T06:20:22.191Z,100821.20
2022-08-03T06:23:00.179Z,100825.80
2022-08-03T06:25:29.199Z,100832.80
2022-08-03T06:27:56.228Z,100828.20
2022-08-03T06:30:23.256Z,100826.80
2022-08-03T06:32:51.722Z,100827.20
2022-08-03T06:35:20.340Z,100827.80
2022-08-03T06:37:51.761Z,100833.60
2022-08-03T06:40:32.278Z,100831.40
2022-08-03T06:43:02.803Z,100832.40
2022-08-03T06:45:31.800Z,100832.60
2022-08-03T06:48:08.331Z,100831.40
2022-08-03T06:50:38.242Z,100829.40
2022-08-03T06:53:06.154Z,100832.80
2022-08-03T06:55:33.512Z,100834.20
2022-08-03T06:58:08.693Z,100830.20
2022-08-03T07:00:35.458Z,100835.80
2022-08-03T07:03:02.234Z,100830.60
2022-08-03T07:05:30.545Z,100831.20
2022-08-03T07:07:59.297Z,100835.20
2022-08-03T07:10:26.166Z,100838.40
2022-08-03T07:12:55.753Z,100837.40
2022-08-03T07:15:38.269Z,100841.00
2022-08-03T07:18:12.253Z,100840.80
2022-08-03T07:20:39.049Z,100849.60
2022-08-03T07:23:05.789Z,100853.00
2022-08-03T07:25:32.531Z,100852.40
2022-08-03T07:27:59.678Z,100857.00
2022-08-03T07:30:26.539Z,100854.80
2022-08-03T07:32:53.543Z,100861.40
2022-08-03T07:35:24.381Z,100857.60
2022-08-03T07:37:54.226Z,100861.00
2022-08-03T07:40:22.746Z,100861.00
2022-08-03T07:42:53.247Z,100864.40
2022-08-03T07:45:23.386Z,100860.60
2022-08-03T07:47:53.634Z,100859.60
2022-08-03T07:50:22.541Z,100859.00
2022-08-03T07:52:51.773Z,100862.20
2022-08-03T07:55:28.739Z,100858.20
2022-08-03T07:58:06.836Z,100861.40
2022-08-03T08:00:34.153Z,100861.40
2022-08-03T08:03:01.007Z,100862.80
2022-08-03T08:05:29.561Z,100862.80
2022-08-03T08:07:56.692Z,100856.40
2022-08-03T08:10:23.890Z,100863.60
2022-08-03T08:12:50.653Z,100857.80
2022-08-03T08:15:17.598Z,100858.60
2022-08-03T08:17:51.964Z,100860.00
2022-08-03T08:20:31.383Z,100857.60
2022-08-03T08:23:09.539Z,100854.80
2022-08-03T08:25:54.011Z,100858.40
2022-08-03T08:28:32.235Z,100856.80
2022-08-03T08:31:02.312Z,100853.80
2022-08-03T08:33:47.949Z,100858.40
2022-08-03T08:36:17.112Z,100862.60
2022-08-03T08:38:45.195Z,100861.40
2022-08-03T08:41:14.628Z,100860.00
2022-08-03T08:43:43.379Z,100856.20
2022-08-03T08:46:23.660Z,100851.80
2022-08-03T08:48:53.392Z,100865.00
2022-08-03T08:51:22.743Z,100858.00
2022-08-03T08:53:53.922Z,100861.20
2022-08-03T08:56:26.107Z,100861.80
2022-08-03T08:59:01.098Z,100865.20
2022-08-03T09:01:29.403Z,100861.80
2022-08-03T09:03:56.626Z,100860.80
2022-08-03T09:06:24.566Z,100862.60
2022-08-03T09:08:51.483Z,100863.80
2022-08-03T09:11:51.464Z,100858.80
2022-08-03T09:14:11.361Z,100862.20
2022-08-03T09:17:03.550Z,100867.00
2022-08-03T09:19:33.530Z,100863.40
2022-08-03T09:22:18.657Z,100859.00
2022-08-03T09:25:23.222Z,100857.80
2022-08-03T09:27:48.229Z,100860.40
2022-08-03T09:30:33.471Z,100857.20
2022-08-03T09:33:06.611Z,100857.80
2022-08-03T09:35:57.752Z,100861.60
2022-08-03T09:38:28.718Z,100864.00
2022-08-03T09:41:00.345Z,100866.80
2022-08-03T09:43:28.757Z,100862.40
2022-08-03T09:46:05.606Z,100872.20
2022-08-03T09:48:37.370Z,100867.40
2022-08-03T09:51:32.324Z,100862.00
2022-08-03T09:53:58.579Z,100864.40
2022-08-03T09:56:42.653Z,100861.60
2022-08-03T09:59:11.881Z,100864.20
2022-08-03T10:01:42.814Z,100863.60
2022-08-03T10:04:17.051Z,100861.20
2022-08-03T10:06:46.196Z,100864.60
2022-08-03T10:09:16.247Z,100865.20
2022-08-03T10:11:47.030Z,100865.20
2022-08-03T10:14:19.217Z,100855.20
2022-08-03T10:16:48.806Z,100857.00
2022-08-03T10:19:17.543Z,100859.60
2022-08-03T10:21:53.684Z,100856.80
2022-08-03T10:24:28.233Z,100856.80
2022-08-03T10:27:04.176Z,100863.20
2022-08-03T10:29:38.837Z,100858.60
2022-08-03T10:32:19.305Z,100855.40
2022-08-03T10:34:50.744Z,100855.60
2022-08-03T10:37:32.312Z,100854.40
2022-08-03T10:40:01.125Z,100849.20
2022-08-03T10:42:31.521Z,100844.80
2022-08-03T10:45:25.545Z,100841.20
2022-08-03T10:47:56.086Z,100840.40
2022-08-03T10:50:26.090Z,100840.00
2022-08-03T10:53:06.985Z,100834.00
2022-08-03T10:55:54.151Z,100841.60
2022-08-03T10:58:57.545Z,100840.60
2022-08-03T11:01:59.920Z,100827.80
2022-08-03T11:04:30.187Z,100828.60
2022-08-03T11:07:26.955Z,100827.00
2022-08-03T11:09:56.906Z,100816.60
2022-08-03T11:12:33.885Z,100813.40
2022-08-03T11:15:07.162Z,100816.60
2022-08-03T11:17:45.769Z,100813.20
2022-08-03T11:20:48.341Z,100812.00
2022-08-03T11:23:18.040Z,100816.60
2022-08-03T11:26:13.783Z,100815.00
2022-08-03T11:28:43.235Z,100811.00
2022-08-03T11:31:46.882Z,100809.40
2022-08-03T11:34:16.065Z,100816.40
2022-08-03T11:37:23.686Z,100811.40
2022-08-03T11:39:55.497Z,100816.80
2022-08-03T11:42:22.133Z,100813.60
2022-08-03T11:44:58.090Z,100814.60
2022-08-03T11:47:30.113Z,100818.60
2022-08-03T11:50:02.178Z,100812.80
2022-08-03T11:52:37.377Z,100810.60
2022-08-03T11:55:11.032Z,100808.20
2022-08-03T11:59:16.384Z,100815.00
2022-08-03T12:00:33.291Z,100807.40
2022-08-03T12:03:14.500Z,100800.60
2022-08-03T12:05:51.515Z,100805.00
2022-08-03T12:08:41.191Z,100811.80
2022-08-03T12:11:10.874Z,100803.00
2022-08-03T12:14:44.570Z,100806.40
2022-08-03T12:16:34.404Z,100799.40
2022-08-03T12:19:05.155Z,100797.80
2022-08-03T12:21:32.328Z,100796.20
2022-08-03T12:24:02.360Z,100802.80
2022-08-03T12:26:42.120Z,100801.00
2022-08-03T12:29:08.923Z,100798.20
2022-08-03T12:31:36.429Z,100793.80
2022-08-03T12:34:07.179Z,100797.60
2022-08-03T12:36:36.458Z,100792.20
2022-08-03T12:39:09.190Z,100787.00
2022-08-03T12:41:39.166Z,100789.80
2022-08-03T12:44:08.994Z,100788.40
2022-08-03T12:46:44.004Z,100785.60
2022-08-03T12:49:18.814Z,100785.80
2022-08-03T12:51:45.621Z,100791.40
2022-08-03T12:54:25.401Z,100791.80
2022-08-03T12:57:07.618Z,100796.20
2022-08-03T12:59:53.179Z,100790.20
2022-08-03T13:02:24.770Z,100785.40
2022-08-03T13:04:54.375Z,100780.40
2022-08-03T13:07:23.046Z,100781.60
2022-08-03T13:09:56.352Z,100781.40
2022-08-03T13:12:27.057Z,100778.60
2022-08-03T13:15:00.632Z,100774.00
2022-08-03T13:17:28.375Z,100776.00
2022-08-03T13:19:56.471Z,100778.20
2022-08-03T13:22:27.373Z,100780.60
2022-08-03T13:24:57.621Z,100786.80
2022-08-03T13:28:03.127Z,100777.60
2022-08-03T13:30:13.302Z,100780.40
2022-08-03T13:32:40.404Z,100780.40
2022-08-03T13:35:09.309Z,100785.40
2022-08-03T13:37:37.732Z,100780.80
2022-08-03T13:40:08.520Z,100782.00
2022-08-03T13:42:38.974Z,100780.20
2022-08-03T13:45:06.729Z,100766.60
2022-08-03T13:47:33.526Z,100770.80
2022-08-03T13:50:02.764Z,100766.40
2022-08-03T13:52:35.475Z,100760.40
2022-08-03T13:55:07.304Z,100770.40
2022-08-03T13:58:05.335Z,100763.20
2022-08-03T14:00:28.939Z,100753.40
2022-08-03T14:03:09.156Z,100749.80
2022-08-03T14:05:39.638Z,100743.40
2022-08-03T14:08:07.888Z,100731.20
2022-08-03T14:10:42.142Z,100733.80
2022-08-03T14:13:11.678Z,100728.20
2022-08-03T14:15:38.939Z,100725.40
2022-08-03T14:18:15.737Z,100729.20
2022-08-03T14:20:53.035Z,100757.60
2022-08-03T14:23:23.060Z,100735.60
2022-08-03T14:25:51.505Z,100712.80
2022-08-03T14:28:25.255Z,100708.80
2022-08-03T14:30:54.425Z,100706.40
2022-08-03T14:33:22.095Z,100706.40
2022-08-03T14:35:49.232Z,100752.80
2022-08-03T14:38:16.660Z,100742.00
2022-08-03T14:40:44.000Z,100746.60
2022-08-03T14:43:11.610Z,100725.20
2022-08-03T14:45:39.842Z,100715.60
2022-08-03T14:50:32.948Z,100699.20
2022-08-03T14:50:55.491Z,100691.00
2022-08-03T14:53:23.384Z,100705.20
2022-08-03T14:55:51.864Z,100701.20
2022-08-03T14:58:25.445Z,100693.60
2022-08-03T15:00:54.927Z,100690.80
2022-08-03T15:03:24.700Z,100693.40
2022-08-03T15:05:55.380Z,100726.40
2022-08-03T15:08:25.864Z,100722.00
2022-08-03T15:10:54.813Z,100696.40
2022-08-03T15:13:22.677Z,100696.20
2022-08-03T15:15:49.978Z,100704.20
2022-08-03T15:18:16.900Z,100696.20
2022-08-03T15:20:46.314Z,100683.00
2022-08-03T15:23:15.820Z,100675.40
2022-08-03T15:26:03.922Z,100667.20
2022-08-03T15:28:34.492Z,100665.80
2022-08-03T15:31:06.516Z,100693.00
2022-08-03T15:33:33.356Z,100663.40
2022-08-03T15:36:02.437Z,100685.00
2022-08-03T15:38:29.298Z,100674.60
2022-08-03T15:40:56.189Z,100660.60
2022-08-03T15:43:24.274Z,100682.80
2022-08-03T15:46:19.463Z,100719.80
2022-08-03T15:48:39.508Z,100718.40
2022-08-03T15:51:07.817Z,100720.40
2022-08-03T15:53:34.781Z,100679.20
2022-08-03T15:56:09.715Z,100665.40
2022-08-03T15:59:09.574Z,100665.60
2022-08-03T16:01:27.407Z,100663.60
2022-08-03T16:03:54.249Z,100659.20
2022-08-03T16:06:29.859Z,100665.20
2022-08-03T16:09:23.886Z,100663.80
2022-08-03T16:11:55.192Z,100667.00
2022-08-03T16:14:32.434Z,100665.80
2022-08-03T16:17:05.160Z,100671.60
2022-08-03T16:19:32.051Z,100680.00
2022-08-03T16:21:59.532Z,100695.00
2022-08-03T16:24:28.195Z,100680.40
2022-08-03T16:26:56.337Z,100686.60
2022-08-03T16:29:23.915Z,100674.80
2022-08-03T16:31:52.529Z,100694.80
2022-08-03T16:34:20.776Z,100667.00
2022-08-03T16:36:47.885Z,100676.00
2022-08-03T16:39:14.874Z,100687.40
2022-08-03T16:41:54.547Z,100670.40
2022-08-03T16:44:31.019Z,100670.40
2022-08-03T16:47:00.001Z,100673.40
2022-08-03T16:49:54.687Z,100679.60
2022-08-03T16:52:14.241Z,100670.80
2022-08-03T16:54:50.551Z,100668.40
2022-08-03T16:57:56.028Z,100671.80
2022-08-03T17:00:34.207Z,100694.60
2022-08-03T17:03:04.135Z,100677.40
2022-08-03T17:05:32.694Z,100674.80
2022-08-03T17:08:13.888Z,100680.80
2022-08-03T17:10:45.226Z,100679.40
2022-08-03T17:13:15.206Z,100684.40
2022-08-03T17:16:00.885Z,100693.80
2022-08-03T17:18:38.785Z,100675.20
2022-08-03T17:21:11.368Z,100676.00
2022-08-03T17:23:51.883Z,100683.00
2022-08-03T17:26:22.008Z,100681.20
2022-08-03T17:28:57.178Z,100677.20
2022-08-03T17:31:31.120Z,100680.00
2022-08-03T17:34:04.480Z,100682.20
2022-08-03T17:37:02.070Z,100677.60
2022-08-03T17:39:31.205Z,100681.60
2022-08-03T17:42:30.343Z,100678.80
2022-08-03T17:45:02.548Z,100680.20
2022-08-03T17:47:42.197Z,100684.60
2022-08-03T17:50:25.025Z,100690.80
2022-08-03T17:53:07.482Z,100714.80
2022-08-03T17:59:09.548Z,100729.40
2022-08-03T18:02:47.968Z,100726.20
2022-08-03T18:05:21.908Z,100727.60
2022-08-03T18:07:59.290Z,100726.40
2022-08-03T18:10:35.746Z,100723.60
2022-08-03T18:13:22.981Z,100724.00
2022-08-03T18:16:04.495Z,100720.00
2022-08-03T18:18:43.026Z,100719.60
2022-08-03T18:21:16.677Z,100720.00
2022-08-03T18:23:46.116Z,100720.20
2022-08-03T18:26:18.638Z,100719.00
2022-08-03T18:28:45.996Z,100719.20
2022-08-03T18:31:33.098Z,100720.00
2022-08-03T18:34:16.367Z,100718.00
2022-08-03T18:39:50.239Z,100720.60
2022-08-03T18:42:20.372Z,100720.00
2022-08-03T18:44:56.288Z,100720.00
2022-08-03T18:47:52.624Z,100716.60
2022-08-03T18:50:37.214Z,100718.40
2022-08-03T18:54:04.018Z,100716.00
2022-08-03T18:56:21.538Z,100716.40
2022-08-03T18:59:03.073Z,100714.20
2022-08-03T19:02:00.361Z,100712.60
2022-08-03T19:04:46.558Z,100717.40
2022-08-03T19:07:23.860Z,100720.00
2022-08-03T19:09:59.390Z,100716.60
2022-08-03T19:12:46.002Z,100720.00
2022-08-03T19:15:15.781Z,100718.60
2022-08-03T19:17:53.725Z,100722.00
2022-08-03T19:20:25.161Z,100722.00
2022-08-03T19:22:54.769Z,100720.60
2022-08-03T19:25:33.336Z,100724.40
2022-08-03T19:28:06.130Z,100722.00
2022-08-03T19:30:40.329Z,100725.80
2022-08-03T19:33:15.743Z,100728.20
2022-08-03T19:35:55.275Z,100724.40
2022-08-03T19:38:29.211Z,100726.20
2022-08-03T19:41:03.758Z,100725.80
2022-08-03T19:43:49.530Z,100727.80
2022-08-03T19:46:30.997Z,100732.20
2022-08-03T19:49:10.652Z,100729.40
2022-08-03T19:51:58.869Z,100730.00
2022-08-03T19:54:53.580Z,100727.60
2022-08-03T19:57:26.864Z,100728.80
2022-08-03T19:59:56.676Z,100724.20
2022-08-03T20:02:27.025Z,100725.60
2022-08-03T20:04:57.027Z,100722.60
2022-08-03T20:07:26.886Z,100725.80
2022-08-03T20:09:56.541Z,100724.80
2022-08-03T20:12:28.426Z,100723.80
2022-08-03T20:14:59.982Z,100726.60
2022-08-03T20:17:55.074Z,100723.00
2022-08-03T20:20:30.621Z,100718.60
2022-08-03T20:23:00.339Z,100722.40
2022-08-03T20:25:38.056Z,100719.80
2022-08-03T20:28:14.483Z,100718.40
2022-08-03T20:30:47.426Z,100720.40
2022-08-03T20:33:18.328Z,100721.20
2022-08-03T20:35:49.674Z,100726.00
2022-08-03T20:38:19.240Z,100720.60
2022-08-03T20:40:48.389Z,100719.00
2022-08-03T20:43:16.874Z,100720.00
2022-08-03T20:45:59.762Z,100722.20
2022-08-03T20:48:37.244Z,100725.60
2022-08-03T20:54:00.177Z,100725.60
2022-08-03T20:56:35.764Z,100728.00
2022-08-03T20:59:07.150Z,100723.80
2022-08-03T21:01:42.282Z,100715.40
2022-08-03T21:04:11.915Z,100718.20
2022-08-03T21:07:00.753Z,100716.60
2022-08-03T21:09:49.408Z,100719.80
2022-08-03T21:12:43.586Z,100716.60
2022-08-03T21:12:58.651Z,100717.60
2022-08-03T21:13:05.488Z,100723.20
2022-08-03T21:13:14.286Z,100724.20
2022-08-03T21:16:03.144Z,100712.00
2022-08-03T21:18:06.024Z,100710.40
2022-08-03T21:20:34.854Z,100710.40
2022-08-03T21:23:02.201Z,100707.40
2022-08-03T21:25:33.578Z,100700.00
2022-08-03T21:28:01.970Z,100700.00
2022-08-03T21:30:30.481Z,100701.20
2022-08-03T21:32:58.576Z,100704.60
2022-08-03T21:35:25.644Z,100707.60
2022-08-03T21:38:11.975Z,100703.40
2022-08-03T21:40:41.079Z,100701.80
2022-08-03T21:43:09.063Z,100702.40
2022-08-03T21:45:48.401Z,100699.60
2022-08-03T21:48:16.723Z,100699.00
2022-08-03T21:50:44.676Z,100700.40
2022-08-03T21:53:12.205Z,100699.40
2022-08-03T21:55:46.706Z,100698.00
2022-08-03T21:58:21.119Z,100700.40
2022-08-03T22:00:48.476Z,100694.40
2022-08-03T22:03:17.821Z,100699.20
2022-08-03T22:05:45.144Z,100701.80
2022-08-03T22:08:15.295Z,100703.00
2022-08-03T22:10:47.468Z,100700.20
2022-08-03T22:13:21.926Z,100701.60
2022-08-03T22:16:05.247Z,100699.40
2022-08-03T22:18:32.186Z,100697.00
2022-08-03T22:21:00.642Z,100696.40
2022-08-03T22:23:27.851Z,100697.80
2022-08-03T22:25:57.609Z,100697.00
2022-08-03T22:28:30.673Z,100698.60
2022-08-03T22:31:00.155Z,100700.80
2022-08-03T22:33:48.969Z,100696.60
2022-08-03T22:36:23.173Z,100693.40
2022-08-03T22:38:53.604Z,100696.80
2022-08-03T22:41:21.360Z,100702.00
2022-08-03T22:43:49.738Z,100702.20
2022-08-03T22:46:22.134Z,100699.20
2022-08-03T22:48:50.620Z,100707.40
2022-08-03T22:51:20.689Z,100699.00
2022-08-03T22:53:48.296Z,100704.80
2022-08-03T22:56:15.197Z,100703.80
2022-08-03T22:58:42.291Z,100700.40
2022-08-03T23:01:11.791Z,100696.20
2022-08-03T23:03:59.152Z,100696.00
2022-08-03T23:06:36.329Z,100698.60
2022-08-03T23:09:13.702Z,100700.60
2022-08-03T23:11:45.488Z,100697.40
2022-08-03T23:14:19.361Z,100694.60
2022-08-03T23:16:48.118Z,100698.60
2022-08-03T23:19:25.183Z,100697.80
2022-08-03T23:22:03.815Z,100700.20
2022-08-03T23:24:38.420Z,100701.60
2022-08-03T23:27:09.154Z,100696.40
2022-08-03T23:29:42.192Z,100692.00
2022-08-03T23:32:10.707Z,100689.80
2022-08-03T23:34:58.878Z,100689.20
2022-08-03T23:37:26.982Z,100691.00
2022-08-03T23:39:57.276Z,100690.60
2022-08-03T23:42:25.359Z,100693.80
2022-08-03T23:44:59.567Z,100688.20
2022-08-03T23:47:46.757Z,100688.80
2022-08-03T23:50:15.938Z,100686.40
2022-08-03T23:52:57.692Z,100684.00
2022-08-03T23:55:56.068Z,100689.20
2022-08-03T23:59:06.433Z,100684.20
